Time;durP1;ratioP1;P1;durP2;ratioP2;P2;SDS_P1;SDS_P2;PMS_P1;PMS_P2;Temp;Humidity;BMP_temperature;BMP_pressure;BME280_temperature;BME280_humidity;BME280_pressure;Samples;Min_cycle;Max_cycle;Signal;HPM_P1;HPM_P2
2022/02/25 00:00:13;;;;;;;15.10;5.50;;;3.20;96.70;;;1.88;91.32;97609.94;5022009;28;20461;-71
2022/02/25 00:02:39;;;;;;;11.85;5.22;;;3.20;96.90;;;1.84;91.48;97613.13;5019912;28;20423;-70
2022/02/25 00:05:06;;;;;;;19.42;6.60;;;3.20;96.90;;;1.85;91.41;97601.69;5020841;28;21148;-70
2022/02/25 00:07:32;;;;;;;21.95;6.85;;;3.10;96.90;;;1.82;91.37;97612.50;5021466;28;20982;-70
2022/02/25 00:09:58;;;;;;;16.80;6.30;;;3.00;96.60;;;1.90;91.42;97609.75;5019985;28;20432;-70
2022/02/25 00:12:24;;;;;;;17.27;6.40;;;3.10;97.10;;;1.82;91.46;97623.75;5022578;28;20464;-70
2022/02/25 00:14:52;;;;;;;16.27;5.82;;;3.10;97.30;;;1.75;91.44;97622.06;5020021;28;20453;-70
2022/02/25 00:17:18;;;;;;;15.38;5.72;;;3.00;97.10;;;1.54;91.37;97615.91;5018593;28;20914;-71
2022/02/25 00:19:44;;;;;;;13.18;5.30;;;2.90;97.00;;;1.46;91.33;97623.06;5020018;28;20542;-70
2022/02/25 00:22:10;;;;;;;19.05;6.18;;;2.90;97.20;;;1.48;91.25;97632.31;5020862;28;20449;-70
2022/02/25 00:24:36;;;;;;;18.70;6.50;;;2.80;97.10;;;1.46;91.02;97639.50;5019432;28;20900;-70
2022/02/25 00:27:02;;;;;;;20.15;6.63;;;2.80;97.20;;;1.46;91.07;97649.13;5020550;28;20880;-70
2022/02/25 00:29:28;;;;;;;14.25;6.07;;;2.80;97.30;;;1.48;90.86;97639.31;5020821;28;20398;-70
2022/02/25 00:31:55;;;;;;;21.20;6.40;;;2.80;97.50;;;1.52;90.74;97658.81;5018748;28;20416;-70
2022/02/25 00:34:21;;;;;;;24.08;6.90;;;2.90;97.60;;;1.59;91.10;97658.88;5020829;28;20418;-69
2022/02/25 00:36:47;;;;;;;22.50;7.67;;;2.90;97.60;;;1.63;90.89;97667.94;5020296;28;20416;-70
2022/02/25 00:39:13;;;;;;;19.15;7.15;;;2.90;97.50;;;1.62;91.17;97669.75;5019004;28;20506;-69
2022/02/25 00:41:39;;;;;;;15.83;6.10;;;2.90;97.60;;;1.51;91.26;97678.06;5020434;28;20411;-70
2022/02/25 00:44:05;;;;;;;18.10;7.35;;;2.90;97.60;;;1.54;90.97;97693.34;5020349;28;20412;-70
2022/02/25 00:46:32;;;;;;;22.55;7.53;;;2.80;97.40;;;1.52;91.07;97695.34;5018870;28;20461;-69
2022/02/25 00:48:59;;;;;;;19.60;8.05;;;2.70;97.40;;;1.51;91.18;97688.50;5020869;28;20430;-69
2022/02/25 00:51:25;;;;;;;20.73;7.68;;;2.70;97.10;;;1.47;91.24;97693.28;5020216;28;20436;-69
2022/02/25 00:53:51;;;;;;;20.77;7.45;;;2.80;97.40;;;1.50;91.17;97695.50;5018652;28;20403;-69
2022/02/25 00:56:17;;;;;;;25.75;7.70;;;2.80;97.50;;;1.51;91.34;97698.94;5018766;28;20444;-69
2022/02/25 00:58:43;;;;;;;22.83;7.27;;;2.70;97.20;;;1.48;91.33;97702.75;5020212;28;20554;-70
2022/02/25 01:01:09;;;;;;;26.52;8.63;;;2.80;97.40;;;1.38;91.14;97704.03;5020567;28;20416;-70
2022/02/25 01:03:35;;;;;;;25.47;7.87;;;2.70;97.00;;;1.32;91.14;97692.53;5018343;28;20488;-70
2022/02/25 01:06:02;;;;;;;21.77;7.53;;;2.70;97.20;;;1.16;91.20;97703.19;5020004;28;20486;-70
2022/02/25 01:08:28;;;;;;;18.27;7.75;;;2.50;97.20;;;1.13;91.02;97711.38;5020411;28;20424;-70
2022/02/25 01:10:55;;;;;;;20.98;7.68;;;2.50;97.20;;;1.04;91.04;97718.50;5018460;28;20504;-71
2022/02/25 01:13:20;;;;;;;26.85;9.32;;;2.40;96.60;;;0.96;90.90;97712.59;5019799;28;20398;-70
2022/02/25 01:15:46;;;;;;;25.48;9.13;;;2.20;95.60;;;0.87;90.76;97714.47;5020024;28;21108;-70
2022/02/25 01:18:12;;;;;;;25.45;8.45;;;2.10;95.60;;;0.76;90.57;97723.56;5018225;28;20439;-70
2022/02/25 01:20:38;;;;;;;22.33;8.30;;;2.10;96.10;;;0.69;90.70;97735.69;5020374;28;20403;-70
2022/02/25 01:23:07;;;;;;;27.05;8.38;;;2.10;96.60;;;0.67;90.39;97729.06;5019182;28;20413;-71
2022/02/25 01:25:33;;;;;;;21.23;8.33;;;2.00;96.30;;;0.68;90.34;97743.66;5018590;28;20594;-71
2022/02/25 01:27:59;;;;;;;25.33;9.43;;;2.00;96.60;;;0.74;90.58;97745.59;5019870;28;20881;-72
2022/02/25 01:30:25;;;;;;;26.35;9.30;;;2.00;97.30;;;0.54;90.50;97752.28;5022449;28;20887;-71
2022/02/25 01:32:51;;;;;;;28.25;9.45;;;1.90;95.90;;;0.57;90.83;97742.34;5007677;28;20509;-71
2022/02/25 01:35:17;;;;;;;34.10;9.40;;;1.90;96.30;;;0.55;90.73;97738.28;5023117;28;20407;-71
2022/02/25 01:37:44;;;;;;;25.60;9.23;;;1.90;96.70;;;0.39;90.75;97758.28;5020260;28;20415;-71
2022/02/25 01:40:12;;;;;;;29.55;8.88;;;1.80;95.90;;;0.47;90.71;97749.59;5020075;28;20460;-71
2022/02/25 01:42:47;;;;;;;23.63;8.47;;;1.70;96.20;;;0.44;90.57;97757.78;5020766;28;20409;-72
2022/02/25 01:45:13;;;;;;;26.35;8.07;;;1.70;96.60;;;0.41;91.04;97755.53;5021122;28;20475;-71
2022/02/25 01:47:39;;;;;;;29.23;8.73;;;1.70;96.40;;;0.35;90.88;97751.84;5019927;28;20403;-72
2022/02/25 01:50:06;;;;;;;29.60;8.57;;;1.70;96.40;;;0.33;90.46;97751.19;5019399;28;20902;-71
2022/02/25 01:52:32;;;;;;;26.20;8.95;;;1.60;96.40;;;0.26;90.61;97757.28;5017803;28;20419;-71
2022/02/25 01:54:58;;;;;;;27.48;8.63;;;1.60;96.50;;;0.15;90.85;97760.34;5017856;28;20414;-71
2022/02/25 01:57:25;;;;;;;29.48;9.40;;;1.40;95.20;;;0.21;90.56;97775.25;5018970;28;20503;-71
2022/02/25 01:59:51;;;;;;;20.83;7.63;;;1.50;96.30;;;0.14;90.58;97767.34;5020838;28;20420;-71
2022/02/25 02:02:17;;;;;;;28.00;8.63;;;1.50;96.40;;;0.14;90.43;97767.34;5022545;28;21169;-70
2022/02/25 02:04:43;;;;;;;24.85;8.35;;;1.50;97.00;;;0.07;90.69;97768.22;5019003;28;20448;-70
2022/02/25 02:07:09;;;;;;;27.23;8.27;;;1.40;96.40;;;0.00;90.23;97768.09;5018452;28;20399;-70
2022/02/25 02:09:35;;;;;;;21.70;7.68;;;1.40;95.90;;;0.04;90.68;97771.16;5019985;28;20406;-69
2022/02/25 02:12:01;;;;;;;28.88;8.52;;;1.40;96.30;;;0.03;90.42;97775.53;5018122;28;20760;-69
2022/02/25 02:14:29;;;;;;;28.88;8.18;;;1.30;96.50;;;0.05;90.73;97770.97;5018755;28;20553;-70
2022/02/25 02:16:58;;;;;;;24.55;8.80;;;1.40;96.70;;;-0.11;90.78;97777.13;5019777;28;20403;-69
2022/02/25 02:19:25;;;;;;;25.17;8.53;;;1.30;96.00;;;0.00;90.28;97781.13;5018894;28;20790;-69
2022/02/25 02:21:54;;;;;;;24.80;8.52;;;1.30;96.60;;;-0.05;90.70;97762.59;5018113;28;20417;-69
2022/02/25 02:24:23;;;;;;;31.20;8.20;;;1.20;96.30;;;-0.12;90.80;97788.50;5019764;28;20749;-70
2022/02/25 02:26:52;;;;;;;25.23;8.53;;;1.20;96.60;;;-0.13;90.37;97775.66;5019181;28;20492;-70
2022/02/25 02:29:18;;;;;;;30.88;7.97;;;1.20;96.60;;;-0.20;90.47;97783.34;5018018;28;20977;-70
2022/02/25 02:31:44;;;;;;;21.52;7.65;;;1.20;96.20;;;-0.25;90.24;97780.47;5018658;28;20434;-70
2022/02/25 02:34:13;;;;;;;24.27;7.70;;;1.10;95.50;;;-0.19;90.28;97790.19;5019603;28;20463;-69
2022/02/25 02:36:40;;;;;;;27.45;6.93;;;1.20;96.00;;;-0.18;90.14;97788.38;5017871;28;20423;-70
2022/02/25 02:39:07;;;;;;;21.27;7.35;;;1.20;96.40;;;-0.23;89.68;97793.31;5018618;28;20423;-69
2022/02/25 02:41:35;;;;;;;22.10;7.07;;;1.10;94.80;;;-0.23;89.02;97801.13;5024448;28;20774;-69
2022/02/25 02:44:01;;;;;;;17.98;6.38;;;1.10;95.20;;;-0.23;88.66;97796.72;5026510;28;20407;-70
2022/02/25 02:46:27;;;;;;;21.38;6.72;;;1.10;95.90;;;-0.29;88.72;97794.78;5024503;28;20425;-70
2022/02/25 02:48:53;;;;;;;22.38;6.80;;;1.10;94.70;;;-0.29;88.25;97789.59;5025943;28;20782;-70
2022/02/25 02:51:18;;;;;;;24.38;6.45;;;1.10;94.30;;;-0.28;87.70;97790.41;5025957;28;20470;-70
2022/02/25 02:53:44;;;;;;;19.73;7.10;;;1.10;94.30;;;-0.24;87.46;97796.88;5022778;28;20488;-70
2022/02/25 02:56:10;;;;;;;18.45;6.18;;;1.10;94.90;;;-0.25;87.33;97803.06;5022790;28;20741;-70
2022/02/25 02:58:37;;;;;;;18.38;6.78;;;1.10;94.70;;;-0.29;87.14;97805.19;5021192;28;21057;-70
2022/02/25 03:01:04;;;;;;;15.00;5.50;;;1.10;94.60;;;-0.28;86.74;97804.22;5022436;28;20407;-71
2022/02/25 03:03:31;;;;;;;24.40;6.10;;;1.10;94.40;;;-0.30;86.79;97811.38;5022295;28;20404;-70
2022/02/25 03:05:56;;;;;;;22.67;6.10;;;1.00;95.50;;;-0.30;87.09;97808.00;5020656;28;20451;-70
2022/02/25 03:08:22;;;;;;;19.83;6.32;;;1.00;95.40;;;-0.30;86.79;97813.97;5022447;28;20400;-71
2022/02/25 03:10:49;;;;;;;22.98;6.93;;;1.00;94.90;;;-0.33;86.88;97808.31;5022295;28;20412;-70
2022/02/25 03:13:16;;;;;;;21.08;5.95;;;1.00;95.50;;;-0.33;87.35;97808.31;5020334;28;20513;-70
2022/02/25 03:15:45;;;;;;;19.52;6.43;;;1.00;95.50;;;-0.29;87.21;97820.78;5022446;28;20395;-71
2022/02/25 03:18:12;;;;;;;25.20;6.05;;;1.00;95.20;;;-0.30;86.28;97813.97;5022247;28;20408;-71
2022/02/25 03:20:38;;;;;;;23.00;6.82;;;1.00;95.10;;;-0.34;86.29;97814.50;5020647;28;20412;-71
2022/02/25 03:23:03;;;;;;;23.38;6.00;;;1.00;94.50;;;-0.30;85.81;97816.56;5021545;28;20478;-70
2022/02/25 03:25:30;;;;;;;21.77;6.65;;;1.00;94.30;;;-0.34;85.25;97832.72;5022239;28;20436;-70
2022/02/25 03:27:56;;;;;;;21.10;5.90;;;1.00;94.40;;;-0.38;85.19;97840.06;5020408;28;20512;-71
2022/02/25 03:30:23;;;;;;;19.50;4.80;;;1.00;94.70;;;-0.50;85.99;97838.78;5022064;28;21092;-70
2022/02/25 03:32:51;;;;;;;18.95;5.03;;;0.90;95.60;;;-0.54;86.21;97840.13;5021526;28;20404;-71
2022/02/25 03:35:18;;;;;;;17.08;4.90;;;0.80;95.60;;;-0.64;85.95;97845.53;5020413;28;20510;-70
2022/02/25 03:37:44;;;;;;;18.70;4.82;;;0.70;95.40;;;-0.64;86.10;97852.50;5021385;28;20403;-70
2022/02/25 03:40:11;;;;;;;12.03;4.63;;;0.70;95.50;;;-0.80;86.41;97846.41;5022002;28;20450;-69
2022/02/25 03:42:38;;;;;;;16.13;4.53;;;0.60;95.70;;;-0.88;87.01;97856.00;5019822;28;20917;-70
2022/02/25 03:45:06;;;;;;;11.60;4.60;;;0.50;96.00;;;-0.87;86.89;97839.44;5021518;28;20407;-70
2022/02/25 03:47:33;;;;;;;13.88;4.75;;;0.50;95.90;;;-0.93;86.67;97853.91;5021963;28;20451;-70
2022/02/25 03:50:00;;;;;;;15.27;4.50;;;0.40;95.80;;;-0.94;87.22;97854.06;5019566;28;20764;-70
2022/02/25 03:52:26;;;;;;;17.65;4.72;;;0.40;96.20;;;-0.96;87.63;97854.25;5020650;28;20404;-69
2022/02/25 03:54:52;;;;;;;14.32;5.28;;;0.40;96.30;;;-1.01;87.74;97851.34;5020306;28;20406;-69
2022/02/25 03:57:18;;;;;;;21.50;5.03;;;0.40;96.30;;;-0.97;87.26;97851.81;5019828;28;20397;-70
2022/02/25 03:59:44;;;;;;;10.27;4.50;;;0.40;95.90;;;-1.07;87.39;97862.41;5021166;28;20908;-70
2022/02/25 04:02:10;;;;;;;10.03;4.43;;;0.40;96.20;;;-1.04;87.57;97863.84;5021080;28;20495;-70
2022/02/25 04:04:36;;;;;;;16.10;4.75;;;0.30;96.30;;;-1.03;87.43;97865.47;5019936;28;20436;-70
2022/02/25 04:07:05;;;;;;;12.68;4.43;;;0.30;96.10;;;-1.15;87.29;97856.41;5021185;28;20399;-70
2022/02/25 04:09:31;;;;;;;9.07;4.60;;;0.30;96.20;;;-1.17;87.32;97867.78;5020093;28;20834;-71
2022/02/25 04:11:57;;;;;;;18.17;4.90;;;0.20;96.30;;;-1.18;87.18;97867.94;5019256;28;20409;-70
2022/02/25 04:14:23;;;;;;;18.23;5.45;;;0.20;96.20;;;-1.15;87.64;97867.63;5021259;28;20746;-70
2022/02/25 04:16:51;;;;;;;13.68;4.60;;;0.20;96.30;;;-1.12;87.20;97874.25;5020786;28;20408;-70
2022/02/25 04:19:19;;;;;;;14.35;4.82;;;0.20;96.10;;;-1.07;87.38;97878.00;5018200;28;20799;-70
2022/02/25 04:21:46;;;;;;;14.48;4.30;;;0.30;96.20;;;-1.09;87.68;97881.72;5020287;28;20410;-70
2022/02/25 04:24:13;;;;;;;13.60;4.68;;;0.30;96.50;;;-1.06;88.24;97890.00;5021436;28;20420;-70
2022/02/25 04:26:39;;;;;;;17.50;4.57;;;0.30;96.60;;;-0.99;87.63;97890.16;5019272;28;20408;-70
2022/02/25 04:29:05;;;;;;;15.82;4.43;;;0.40;96.40;;;-0.98;87.73;97894.38;5019250;28;20418;-70
2022/02/25 04:31:32;;;;;;;15.50;4.63;;;0.40;96.40;;;-0.94;87.85;97898.25;5021190;28;20423;-70
2022/02/25 04:33:58;;;;;;;12.15;4.53;;;0.40;95.90;;;-0.92;87.51;97898.91;5019009;28;20405;-70
2022/02/25 04:36:24;;;;;;;12.55;4.65;;;0.40;96.00;;;-0.87;87.58;97907.00;5020334;28;20407;-70
2022/02/25 04:38:53;;;;;;;12.90;4.53;;;0.50;96.40;;;-0.84;88.27;97909.28;5020637;28;21132;-71
2022/02/25 04:41:21;;;;;;;13.52;4.30;;;0.50;96.60;;;-0.84;88.08;97911.88;5019423;28;20408;-71
2022/02/25 04:43:47;;;;;;;12.13;4.20;;;0.50;96.60;;;-0.85;87.88;97905.88;5019468;28;20404;-70
2022/02/25 04:46:18;;;;;;;14.18;3.78;;;0.50;96.60;;;-0.86;87.75;97916.44;5010663;28;21441;-70
2022/02/25 04:48:45;;;;;;;15.82;4.30;;;0.50;96.50;;;-0.83;87.10;97916.88;5019982;28;20874;-71
2022/02/25 04:51:12;;;;;;;12.30;4.20;;;0.50;96.40;;;-0.86;87.65;97913.81;5019303;28;20510;-70
2022/02/25 04:53:38;;;;;;;12.10;3.90;;;0.50;96.50;;;-0.83;87.40;97908.31;5020593;28;20414;-70
2022/02/25 04:56:05;;;;;;;12.95;3.90;;;0.50;96.40;;;-0.77;87.58;97914.63;5022642;28;20407;-70
2022/02/25 04:58:33;;;;;;;10.57;3.90;;;0.60;96.50;;;-0.70;87.96;97919.00;5023395;28;20424;-71
2022/02/25 05:01:00;;;;;;;13.73;4.40;;;0.60;96.70;;;-0.61;88.27;97909.38;5023390;28;20927;-71
2022/02/25 05:03:26;;;;;;;11.73;4.00;;;0.70;96.70;;;-0.52;88.32;97914.38;5019973;28;20414;-71
2022/02/25 05:05:51;;;;;;;11.93;3.88;;;0.80;96.80;;;-0.46;88.45;97911.13;5020475;28;20456;-71
2022/02/25 05:08:17;;;;;;;18.27;4.05;;;0.90;96.80;;;-0.41;88.12;97908.00;5018772;28;20404;-70
2022/02/25 05:10:43;;;;;;;13.25;4.22;;;0.90;95.50;;;-0.27;88.02;97920.28;5032663;22;20792;-71
2022/02/25 05:13:09;;;;;;;12.05;3.60;;;1.00;96.40;;;-0.19;88.74;97916.84;5018769;28;20411;-71
2022/02/25 05:21:06;;;;;;;9.85;3.30;;;1.20;96.90;;;-0.04;89.05;97931.56;5018047;28;20407;-71
2022/02/25 05:23:32;;;;;;;9.83;3.47;;;1.30;97.10;;;-0.03;88.66;97938.38;5018544;28;20435;-71
2022/02/25 05:25:58;;;;;;;12.18;3.47;;;1.30;96.80;;;-0.03;88.24;97935.78;5020434;28;20399;-71
2022/02/25 05:28:24;;;;;;;15.38;3.85;;;1.30;96.70;;;0.00;88.24;97939.84;5009935;28;20413;-71
2022/02/25 05:30:51;;;;;;;12.85;3.75;;;1.30;96.70;;;-0.01;87.94;97939.03;5020081;28;20408;-71
2022/02/25 05:33:17;;;;;;;15.30;3.83;;;1.30;96.70;;;0.02;87.72;97944.88;5000431;28;20416;-71
2022/02/25 05:35:43;;;;;;;10.82;3.40;;;1.30;96.70;;;0.01;87.68;97949.25;5020144;28;20395;-71
2022/02/25 05:38:10;;;;;;;14.35;3.53;;;1.30;96.40;;;0.00;87.16;97945.06;5009391;28;20409;-71
2022/02/25 05:40:36;;;;;;;17.65;4.00;;;1.30;96.10;;;0.00;86.56;97945.06;5009751;28;20417;-71
2022/02/25 05:43:03;;;;;;;16.67;4.05;;;1.30;95.70;;;0.00;86.07;97950.25;5018496;28;20404;-71
2022/02/25 05:45:29;;;;;;;15.38;3.60;;;1.30;95.70;;;0.00;86.38;97953.66;5019115;28;20410;-71
2022/02/25 05:47:56;;;;;;;14.57;3.50;;;1.30;96.00;;;0.06;86.46;97959.97;5009219;28;20397;-71
2022/02/25 05:50:24;;;;;;;16.40;3.70;;;1.30;96.20;;;0.14;87.31;97965.16;5019457;28;20496;-70
2022/02/25 05:52:51;;;;;;;16.33;4.13;;;1.40;96.60;;;0.21;88.11;97986.09;5018827;28;20399;-70
2022/02/25 05:55:19;;;;;;;14.25;3.80;;;1.50;96.80;;;0.29;88.53;97980.84;5009540;28;20404;-70
2022/02/25 05:57:45;;;;;;;11.98;3.83;;;1.60;96.90;;;0.32;88.73;97996.13;5010878;28;20972;-71
2022/02/25 06:00:15;;;;;;;9.80;4.00;;;1.60;97.20;;;0.33;89.16;97987.31;5020395;28;20474;-71
2022/02/25 06:02:42;;;;;;;15.80;4.00;;;1.60;97.30;;;0.32;89.44;97991.72;5019681;28;20915;-70
2022/02/25 06:05:10;;;;;;;19.33;3.95;;;1.60;97.30;;;0.30;89.29;97992.91;5017663;28;20426;-70
2022/02/25 06:07:36;;;;;;;13.48;3.78;;;1.60;97.30;;;0.22;88.88;97996.34;5019970;28;20403;-71
2022/02/25 06:10:04;;;;;;;13.50;3.70;;;1.50;97.10;;;0.15;88.65;97989.38;5017870;28;20483;-70
2022/02/25 06:12:30;;;;;;;16.63;4.32;;;1.40;96.60;;;0.08;87.83;97997.03;5006467;28;20459;-71
2022/02/25 06:14:56;;;;;;;17.65;3.90;;;1.40;95.60;;;-0.01;87.71;98004.09;5008035;28;20843;-71
2022/02/25 06:17:22;;;;;;;15.80;4.25;;;1.30;96.20;;;-0.08;87.50;97999.75;5011819;28;20408;-71
2022/02/25 06:19:48;;;;;;;14.85;4.43;;;1.20;96.30;;;-0.19;87.06;98010.50;5012557;28;20420;-71
2022/02/25 06:22:16;;;;;;;16.30;4.45;;;1.10;96.20;;;-0.26;86.95;98012.16;5012374;28;20397;-71
2022/02/25 06:24:42;;;;;;;14.30;4.25;;;1.10;96.40;;;-0.33;87.39;98009.41;5011906;28;20404;-71
2022/02/25 06:27:08;;;;;;;14.45;4.20;;;1.00;96.30;;;-0.41;87.11;98015.44;5011786;28;20405;-71
2022/02/25 06:29:34;;;;;;;13.02;4.60;;;0.90;96.30;;;-0.51;87.08;98013.97;5013239;28;20766;-71
2022/02/25 06:32:00;;;;;;;14.45;4.28;;;0.80;96.10;;;-0.60;87.02;98009.81;5010595;28;20421;-71
2022/02/25 06:34:26;;;;;;;16.23;4.22;;;0.80;96.30;;;-0.68;87.31;98015.81;5011911;28;20411;-70
2022/02/25 06:36:52;;;;;;;18.70;4.28;;;0.70;96.40;;;-0.70;87.71;98015.16;5010899;28;20444;-71
2022/02/25 06:39:19;;;;;;;17.95;4.70;;;0.60;96.40;;;-0.69;87.48;98026.38;4996705;28;20504;-71
2022/02/25 06:41:45;;;;;;;14.45;4.47;;;0.60;96.30;;;-0.75;87.04;98014.03;5009861;28;20413;-71
2022/02/25 06:44:11;;;;;;;14.00;4.65;;;0.60;96.40;;;-0.84;87.34;98013.22;5013160;28;20478;-73
2022/02/25 06:46:38;;;;;;;15.40;4.57;;;0.50;96.50;;;-0.90;88.00;98019.88;5013407;28;20416;-73
2022/02/25 06:49:05;;;;;;;16.83;4.55;;;0.50;96.70;;;-0.85;88.04;98022.81;5010030;28;20393;-73
2022/02/25 06:51:31;;;;;;;17.40;4.35;;;0.50;96.70;;;-0.85;87.85;98032.41;5005383;28;20406;-72
2022/02/25 06:53:58;;;;;;;12.07;4.15;;;0.50;96.70;;;-0.90;87.95;98035.47;5009397;28;20933;-72
2022/02/25 06:56:26;;;;;;;19.08;4.88;;;0.50;96.80;;;-0.82;88.08;98040.66;5010859;28;20500;-72
2022/02/25 06:58:52;;;;;;;20.40;5.07;;;0.50;96.80;;;-0.83;88.04;98039.03;5010548;28;20421;-72
2022/02/25 07:01:17;;;;;;;17.40;4.60;;;0.50;96.80;;;-0.81;88.08;98044.06;5015142;28;20513;-73
2022/02/25 07:03:44;;;;;;;16.90;4.57;;;0.50;96.80;;;-0.77;88.32;98045.38;5012910;28;20567;-74
2022/02/25 07:06:10;;;;;;;14.82;4.82;;;0.60;96.90;;;-0.74;88.07;98052.84;5010679;28;20413;-71
2022/02/25 07:08:36;;;;;;;25.35;5.10;;;0.60;96.80;;;-0.70;88.15;98048.97;5008208;28;20432;-72
2022/02/25 07:11:02;;;;;;;18.00;5.00;;;0.60;96.60;;;-0.67;88.12;98053.81;5010864;28;20569;-72
2022/02/25 07:13:29;;;;;;;16.07;4.97;;;0.60;96.80;;;-0.62;88.03;98056.75;5010193;28;20412;-72
2022/02/25 07:15:58;;;;;;;23.40;5.20;;;0.70;96.70;;;-0.56;88.23;98056.09;5013792;28;21079;-71
2022/02/25 07:18:24;;;;;;;23.25;4.95;;;0.80;96.50;;;-0.43;87.65;98063.38;5012073;28;20397;-72
2022/02/25 07:20:50;;;;;;;21.52;4.88;;;0.90;95.80;;;-0.31;87.73;98061.25;5011782;28;20417;-71
2022/02/25 07:23:16;;;;;;;21.05;5.15;;;1.00;96.00;;;-0.21;87.24;98062.69;5012954;28;20408;-72
2022/02/25 07:25:42;;;;;;;17.02;4.85;;;1.10;95.70;;;-0.07;87.02;98067.19;5013292;28;20401;-72
2022/02/25 07:28:09;;;;;;;15.53;4.60;;;1.20;95.00;;;0.05;87.01;98072.88;5010205;28;20889;-71
2022/02/25 07:30:37;;;;;;;19.23;4.50;;;1.30;95.70;;;0.18;87.69;98067.13;5010336;28;20930;-72
2022/02/25 07:33:03;;;;;;;18.13;4.80;;;1.40;96.00;;;0.24;88.02;98072.47;5009850;28;20407;-72
2022/02/25 07:35:29;;;;;;;24.47;4.43;;;1.50;96.30;;;0.33;88.11;98071.47;5011814;28;20507;-74
2022/02/25 07:37:56;;;;;;;23.75;5.05;;;1.60;96.00;;;0.44;88.09;98070.28;5011180;28;20532;-72
2022/02/25 07:40:23;;;;;;;18.52;4.32;;;1.70;95.70;;;0.47;87.24;98076.94;5010649;28;20829;-74
2022/02/25 07:42:49;;;;;;;17.58;4.65;;;1.70;95.10;;;0.57;87.49;98067.13;5009997;28;20411;-75
2022/02/25 07:45:15;;;;;;;16.40;4.35;;;1.80;96.10;;;0.57;88.22;98077.53;5011123;28;20416;-73
2022/02/25 07:47:43;;;;;;;14.80;3.83;;;1.80;96.10;;;0.65;87.51;98069.69;5013061;28;20862;-73
2022/02/25 07:50:13;;;;;;;21.60;4.10;;;1.90;94.60;;;0.72;86.99;98075.81;5008258;28;20490;-73
2022/02/25 07:52:40;;;;;;;16.40;3.95;;;2.00;94.50;;;0.85;87.30;98085.69;5010805;28;20400;-74
2022/02/25 07:55:08;;;;;;;19.58;4.38;;;2.10;95.60;;;0.89;87.39;98090.41;5003372;28;20525;-72
2022/02/25 07:57:35;;;;;;;17.90;3.95;;;2.10;95.30;;;0.95;86.66;98086.28;5002949;28;20455;-72
2022/02/25 08:00:04;;;;;;;17.58;3.35;;;2.20;94.70;;;1.00;86.97;98089.97;5008275;28;20417;-71
2022/02/25 08:02:30;;;;;;;17.27;3.95;;;2.30;94.50;;;1.15;87.37;98090.84;5007190;28;20466;-72
2022/02/25 08:04:57;;;;;;;14.80;3.80;;;2.40;94.40;;;1.21;87.15;98097.16;5004885;28;20412;-73
2022/02/25 08:07:23;;;;;;;12.85;3.80;;;2.40;93.70;;;1.27;86.67;98095.69;4999881;28;20413;-73
2022/02/25 08:09:49;;;;;;;11.82;3.70;;;2.50;94.50;;;1.34;87.53;98102.63;5009825;28;20494;-72
2022/02/25 08:12:15;;;;;;;16.17;3.33;;;2.60;95.30;;;1.34;87.25;98094.00;5007153;28;20408;-73
2022/02/25 08:14:41;;;;;;;13.90;3.50;;;2.60;94.20;;;1.38;86.06;98095.25;5003522;28;20420;-73
2022/02/25 08:17:07;;;;;;;12.63;3.67;;;2.60;94.30;;;1.37;86.07;98089.22;5001917;28;20496;-73
2022/02/25 08:19:33;;;;;;;12.07;3.30;;;2.60;95.00;;;1.45;86.04;98096.16;5003833;28;20424;-72
2022/02/25 08:22:01;;;;;;;15.85;3.50;;;2.70;93.30;;;1.53;86.04;98096.91;5004298;28;20424;-73
2022/02/25 08:24:27;;;;;;;13.77;3.45;;;2.70;94.60;;;1.54;86.37;98082.06;5005972;28;20777;-72
2022/02/25 08:26:53;;;;;;;13.73;3.20;;;2.80;92.40;;;1.65;86.52;98086.88;4988100;28;20412;-71
2022/02/25 08:29:19;;;;;;;13.97;3.73;;;2.80;94.50;;;1.61;85.39;98087.38;5011790;28;20486;-72
2022/02/25 08:31:45;;;;;;;11.27;3.05;;;2.90;94.10;;;1.81;86.76;98083.28;5004836;28;20504;-72
2022/02/25 08:34:11;;;;;;;14.63;3.15;;;2.90;95.40;;;1.76;86.90;98083.00;5005773;28;20933;-72
2022/02/25 08:36:37;;;;;;;12.90;3.28;;;3.00;93.70;;;1.80;85.46;98092.13;5008629;28;20451;-72
2022/02/25 08:39:05;;;;;;;12.13;3.08;;;3.00;92.80;;;1.85;85.50;98082.75;5002788;28;20422;-71
2022/02/25 08:41:32;;;;;;;12.27;3.10;;;3.00;94.40;;;1.84;84.50;98067.28;5007953;28;20507;-73
2022/02/25 08:43:58;;;;;;;11.90;3.53;;;3.10;93.00;;;1.86;85.32;98080.97;5005918;28;20448;-70
2022/02/25 08:46:24;;;;;;;14.90;3.03;;;3.10;93.50;;;1.91;84.49;98076.81;5010071;28;20514;-70
2022/02/25 08:48:49;;;;;;;12.68;3.55;;;3.10;93.40;;;1.93;85.23;98072.25;5009428;28;20408;-70
2022/02/25 08:51:16;;;;;;;13.67;3.13;;;3.10;93.70;;;1.95;84.83;98070.22;4995135;28;20454;-71
2022/02/25 08:53:42;;;;;;;13.07;3.33;;;3.20;92.30;;;2.06;82.39;98070.78;5010800;28;20417;-71
2022/02/25 08:56:10;;;;;;;16.77;3.05;;;3.30;92.40;;;2.13;82.90;98082.94;4996901;28;20454;-71
2022/02/25 08:58:36;;;;;;;11.45;2.90;;;3.40;90.70;;;2.21;81.72;98068.97;5000129;28;20410;-71
2022/02/25 09:01:03;;;;;;;12.88;3.08;;;3.40;92.10;;;2.28;80.99;98069.88;5003034;28;20426;-71
2022/02/25 09:03:29;;;;;;;14.07;3.28;;;3.50;91.60;;;2.25;81.34;98080.72;5005063;28;20447;-71
2022/02/25 09:05:55;;;;;;;11.80;3.20;;;3.40;90.90;;;2.31;80.78;98070.34;4989960;28;20478;-71
2022/02/25 09:08:21;;;;;;;13.13;3.20;;;3.50;91.20;;;2.32;81.03;98073.75;4991182;28;20417;-70
2022/02/25 09:10:49;;;;;;;12.85;3.00;;;3.50;90.50;;;2.37;80.18;98071.41;4991431;28;20486;-71
2022/02/25 09:13:41;;;;;;;10.93;2.95;;;3.60;91.20;;;2.44;81.92;98082.75;5007699;28;20444;-71
2022/02/25 09:16:08;;;;;;;15.45;2.90;;;3.70;88.70;;;2.47;81.05;98089.41;5001271;28;20416;-71
2022/02/25 09:18:34;;;;;;;10.18;3.00;;;3.70;91.20;;;2.58;83.52;98071.47;5009332;28;20490;-70
2022/02/25 09:21:00;;;;;;;10.75;2.90;;;3.70;92.70;;;2.59;84.59;98069.66;4992939;28;20416;-70
2022/02/25 09:23:26;;;;;;;9.63;2.63;;;3.80;94.30;;;2.71;84.71;98079.44;5009311;28;20417;-72
2022/02/25 09:25:51;;;;;;;12.00;3.03;;;3.80;94.40;;;2.70;83.40;98071.81;5004670;28;20497;-71
2022/02/25 09:28:18;;;;;;;11.30;3.03;;;3.90;91.90;;;2.79;81.30;98075.91;4975812;28;20457;-70
2022/02/25 09:30:54;;;;;;;12.18;2.97;;;4.00;91.20;;;2.87;80.03;98085.44;4990690;28;20460;-71
2022/02/25 09:33:20;;;;;;;15.25;2.80;;;4.00;87.40;;;2.99;75.91;98073.53;5006144;28;20411;-70
2022/02/25 09:35:46;;;;;;;12.00;3.22;;;4.20;84.10;;;3.11;76.59;98072.81;5005117;28;20419;-71
2022/02/25 09:38:13;;;;;;;14.20;3.17;;;4.30;87.70;;;3.22;80.48;98082.00;5012036;28;20415;-72
2022/02/25 09:40:39;;;;;;;14.73;3.40;;;4.30;90.90;;;3.39;77.75;98077.28;5010680;28;20424;-71
2022/02/25 09:43:05;;;;;;;12.77;3.05;;;4.60;84.70;;;3.55;73.77;98078.84;5007821;28;20409;-71
2022/02/25 09:45:32;;;;;;;11.65;2.53;;;4.70;81.40;;;3.76;78.34;98084.06;5007826;28;20812;-72
2022/02/25 09:47:59;;;;;;;10.82;2.78;;;4.80;90.20;;;3.94;76.56;98071.28;5007496;28;20427;-72
2022/02/25 09:50:26;;;;;;;10.15;2.63;;;5.00;85.70;;;4.05;77.05;98086.47;4998599;28;20405;-70
2022/02/25 09:52:52;;;;;;;10.10;3.15;;;5.20;86.30;;;4.01;74.73;98082.59;5012236;28;20447;-71
2022/02/25 09:55:22;;;;;;;9.73;2.58;;;5.20;84.40;;;4.09;74.10;98082.44;5003993;28;20421;-73
2022/02/25 09:57:48;;;;;;;15.05;2.90;;;5.20;84.30;;;3.97;70.81;98085.81;4993618;28;20429;-73
2022/02/25 10:00:16;;;;;;;14.25;3.00;;;5.20;80.50;;;3.93;70.97;98089.78;4996770;28;20853;-70
2022/02/25 10:02:44;;;;;;;9.25;2.38;;;5.10;80.40;;;4.10;69.10;98083.25;5004527;28;20453;-72
2022/02/25 10:05:14;;;;;;;9.13;2.30;;;5.20;76.50;;;4.50;66.37;98100.03;4999323;28;20410;-71
2022/02/25 10:07:40;;;;;;;13.75;2.10;;;5.60;75.40;;;4.90;65.98;98093.91;4993220;28;20505;-71
2022/02/25 10:10:08;;;;;;;11.43;2.90;;;6.00;74.90;;;5.06;64.01;98097.97;5005274;28;20419;-72
2022/02/25 10:12:37;;;;;;;12.77;2.35;;;6.20;70.00;;;5.00;58.55;98096.16;4992433;28;20480;-71
2022/02/25 10:15:04;;;;;;;15.85;2.70;;;6.20;66.30;;;5.15;66.81;98106.47;4984865;28;20412;-72
2022/02/25 10:17:30;;;;;;;12.07;2.22;;;6.30;77.70;;;5.27;61.60;98100.44;5006709;28;20503;-72
2022/02/25 10:19:59;;;;;;;8.32;2.25;;;6.30;69.10;;;5.56;66.58;98098.47;4999602;28;20414;-72
2022/02/25 10:22:29;;;;;;;12.98;2.45;;;6.60;75.60;;;5.99;68.25;98093.63;4992536;28;20448;-72
2022/02/25 10:25:01;;;;;;;7.23;2.30;;;7.00;77.70;;;6.72;70.83;98102.13;5009710;28;20495;-72